LEBL/BCN METAR and TAF weather

Enter ICAO airport designator
Station Type Date Time Source
LEBL METAR 2019/07/20 05:00 UTC NOAA

LEBL 200500Z 32007KT 9999 FEW018 22/20 Q1015 NOSIG


Station Type Date Time Source
LEBL Decoded METAR 2019/07/20 05:00 UTC NOAA

Barcelona / Aeropuerto, Spain (LEBL) 41-17N 002-04E 6M
Jul 20, 2019 - 01:00 AM EDT / 2019.07.20 0500 UTC
Wind: from the NW (320 degrees) at 8 MPH (7 KT):0
Visibility: greater than 7 mile(s):0
Sky conditions: mostly clear
Temperature: 71 F (22 C)
Dew Point: 68 F (20 C)
Relative Humidity: 88%
Pressure (altimeter): 29.97 in. Hg (1015 hPa)
ob: LEBL 200500Z 32007KT 9999 FEW018 22/20 Q1015 NOSIG
cycle: 5

Station Type Date Time Source
LEBL TAF 2019/07/19 18:27 UTC NOAA

TAF LEBL 191700Z 1918/2018 19008KT 9999 FEW020 TX30/2012Z TN22/2006Z
BECMG 1919/1921 VRB04KT
BECMG 1923/2001 34006KT
BECMG 2008/2010 16010KT

Example: see airport list